< < Back
Terminal Aerodrome Forecast


Current Version              Previous Versions:   1  2  3  4  5  6  7  8  9  

Terminal Aerodrome Forecast

144
FTUS42 KJAX 301300 AAA
TAFJAX
TAF AMD
KJAX 301308Z 3013/3112 VRB03KT P6SM BKN030
     FM301500 16004KT P6SM SCT035
     FM302000 13010KT P6SM VCTS SCT020 BKN035CB BKN120
     FM310000 12007KT P6SM VCSH SCT030 BKN120
     FM310300 18003KT P6SM FEW030 SCT120 BKN250=



Latest METAR

995
SAUS80 KWBC 301800
MTRJAX
METAR KJAX 301756Z 07006KT 10SM SCT035 SCT150 BKN250 31/24 A3011 RMK AO2
SLP195 T03110239 10328 20233 58016


USA.gov is the U.S. government's official web portal to all federal, state and local government web resources and services.